Time;durP1;ratioP1;P1;durP2;ratioP2;P2;SDS_P1;SDS_P2;PMS_P1;PMS_P2;Temp;Humidity;BMP_temperature;BMP_pressure;BME280_temperature;BME280_humidity;BME280_pressure;Samples;Min_cycle;Max_cycle;Signal;HPM_P1;HPM_P2
2023/09/06 00:00:04;;;;;;;4.35;3.95;;;;;;;17.60;81.15;95347.44;5139290;27;20234;-64
2023/09/06 00:02:32;;;;;;;3.95;3.65;;;;;;;17.59;81.62;95345.84;5139115;27;20187;-64
2023/09/06 00:04:59;;;;;;;5.35;4.20;;;;;;;17.56;81.85;95351.00;5139843;27;20203;-64
2023/09/06 00:07:26;;;;;;;4.25;3.95;;;;;;;17.54;82.00;95345.03;5139588;27;20210;-64
2023/09/06 00:09:52;;;;;;;4.55;4.15;;;;;;;17.51;82.23;95345.03;5121491;27;20228;-64
2023/09/06 00:12:20;;;;;;;4.07;3.78;;;;;;;17.48;82.49;95348.59;5121356;27;20209;-65
2023/09/06 00:14:48;;;;;;;4.00;3.70;;;;;;;17.47;82.71;95342.22;5121156;27;20219;-65
2023/09/06 00:17:15;;;;;;;4.10;3.80;;;;;;;17.47;82.72;95336.63;5139038;27;20198;-65
2023/09/06 00:19:42;;;;;;;4.03;3.70;;;;;;;17.43;82.32;95332.22;5139332;27;20239;-65
2023/09/06 00:22:09;;;;;;;3.88;3.67;;;;;;;17.39;82.65;95337.78;5120740;27;20202;-65
2023/09/06 00:24:35;;;;;;;4.40;4.10;;;;;;;17.41;82.35;95334.63;5120921;27;20187;-65
2023/09/06 00:27:04;;;;;;;4.20;3.90;;;;;;;17.41;82.32;95345.75;5121374;27;20210;-65
2023/09/06 00:29:32;;;;;;;4.55;4.13;;;;;;;17.40;82.53;95349.75;5120583;27;20242;-65
2023/09/06 00:32:00;;;;;;;4.63;4.22;;;;;;;17.42;82.83;95350.13;5138938;27;20244;-65
2023/09/06 00:34:27;;;;;;;4.68;4.28;;;;;;;17.40;83.29;95338.59;5120675;27;20214;-64
2023/09/06 00:36:54;;;;;;;4.35;3.95;;;;;;;17.41;83.12;95340.97;5138468;27;20259;-65
2023/09/06 00:39:21;;;;;;;5.05;4.65;;;;;;;17.41;83.22;95338.19;5138723;27;20663;-65
2023/09/06 00:41:48;;;;;;;4.55;4.03;;;;;;;17.39;83.27;95336.97;5120880;27;20204;-65
2023/09/06 00:44:15;;;;;;;4.50;4.20;;;;;;;17.38;83.16;95335.38;5120700;27;20187;-65
2023/09/06 00:46:42;;;;;;;4.13;3.83;;;;;;;17.39;83.39;95332.19;5138181;27;20637;-65
2023/09/06 00:49:10;;;;;;;4.65;4.20;;;;;;;17.37;83.14;95328.22;5137600;27;20187;-65
2023/09/06 00:51:37;;;;;;;4.70;4.40;;;;;;;17.39;83.46;95325.81;5138285;27;20183;-65
2023/09/06 00:54:04;;;;;;;4.15;3.85;;;;;;;17.38;83.47;95327.81;5120213;27;20233;-65
2023/09/06 00:56:31;;;;;;;4.20;3.90;;;;;;;17.40;83.12;95324.66;5120421;27;20187;-65
2023/09/06 00:58:58;;;;;;;4.25;3.83;;;;;;;17.41;82.70;95321.47;5138339;27;20240;-65
2023/09/06 01:01:24;;;;;;;4.53;4.20;;;;;;;17.43;82.49;95323.84;5120367;27;20255;-65
2023/09/06 01:03:52;;;;;;;4.32;3.97;;;;;;;17.44;81.58;95312.31;5120301;27;20195;-65
2023/09/06 01:06:24;;;;;;;4.72;4.43;;;;;;;17.44;81.06;95309.53;5119866;27;20203;-64
2023/09/06 01:08:55;;;;;;;4.88;4.38;;;;;;;17.44;81.17;95320.69;5137845;27;20198;-64
2023/09/06 01:11:23;;;;;;;5.32;4.85;;;;;;;17.44;81.29;95315.09;5119888;27;20219;-64
2023/09/06 01:13:51;;;;;;;4.70;4.18;;;;;;;17.43;81.40;95321.88;5120152;27;20240;-64
2023/09/06 01:16:21;;;;;;;5.30;4.90;;;;;;;17.45;81.54;95322.28;5137663;27;20618;-64
2023/09/06 01:18:48;;;;;;;4.93;4.53;;;;;;;17.43;82.21;95321.06;5137994;27;20183;-65
2023/09/06 01:21:16;;;;;;;4.90;4.50;;;;;;;17.42;82.30;95316.69;5137998;27;20270;-64
2023/09/06 01:23:45;;;;;;;5.85;4.90;;;;;;;17.40;82.45;95319.88;5119807;27;20251;-65
2023/09/06 01:26:12;;;;;;;4.50;4.20;;;;;;;17.39;82.82;95320.25;5137884;27;20194;-64
2023/09/06 01:28:39;;;;;;;4.75;4.45;;;;;;;17.38;82.87;95318.66;5119502;27;20195;-64
2023/09/06 01:31:06;;;;;;;5.88;4.65;;;;;;;17.36;82.84;95316.28;5119718;27;20195;-65
2023/09/06 01:33:32;;;;;;;4.97;4.57;;;;;;;17.37;83.23;95312.28;5137350;27;20179;-65
2023/09/06 01:35:59;;;;;;;5.22;4.72;;;;;;;17.36;83.35;95319.06;5119649;27;20210;-64
2023/09/06 01:38:26;;;;;;;4.65;4.25;;;;;;;17.38;83.34;95322.25;5137658;27;20187;-64
2023/09/06 01:40:55;;;;;;;5.18;4.75;;;;;;;17.38;83.59;95319.44;5119577;27;20191;-65
2023/09/06 01:43:21;;;;;;;5.25;4.75;;;;;;;17.39;83.55;95325.81;5120050;27;20210;-65
2023/09/06 01:45:50;;;;;;;5.35;4.85;;;;;;;17.40;83.97;95311.50;5137386;27;20179;-64
2023/09/06 01:48:17;;;;;;;5.10;4.60;;;;;;;17.39;84.02;95303.53;5119482;27;20191;-64
2023/09/06 01:50:44;;;;;;;4.85;4.40;;;;;;;17.39;83.85;95309.09;5119466;27;20187;-64
2023/09/06 01:53:13;;;;;;;5.63;4.70;;;;;;;17.39;83.71;95314.66;5137003;27;20602;-64
2023/09/06 01:55:41;;;;;;;5.07;4.68;;;;;;;17.34;83.57;95301.91;5118969;27;20218;-64
2023/09/06 01:58:10;;;;;;;5.10;4.70;;;;;;;17.34;83.66;95310.28;5137260;27;20183;-64
2023/09/06 02:00:37;;;;;;;4.82;4.45;;;;;;;17.32;83.80;95302.31;5136885;27;20191;-64
2023/09/06 02:03:06;;;;;;;4.72;4.32;;;;;;;17.33;83.22;95305.91;5137118;27;20184;-64
2023/09/06 02:05:32;;;;;;;5.45;5.00;;;;;;;17.35;82.60;95305.50;5118848;27;20218;-64
2023/09/06 02:07:59;;;;;;;5.63;5.05;;;;;;;17.35;82.42;95309.06;5137028;27;20175;-64
2023/09/06 02:10:27;;;;;;;5.50;5.00;;;;;;;17.35;82.59;95311.88;5136724;27;20186;-64
2023/09/06 02:12:53;;;;;;;5.25;4.75;;;;;;;17.31;83.12;95311.84;5137181;27;20179;-64
2023/09/06 02:15:22;;;;;;;5.75;5.25;;;;;;;17.30;83.42;95309.47;5137011;27;20259;-64
2023/09/06 02:17:49;;;;;;;5.72;5.13;;;;;;;17.28;83.24;95309.03;5136749;27;20241;-65
2023/09/06 02:20:20;;;;;;;5.63;5.13;;;;;;;17.25;83.68;95309.84;5118672;27;20195;-65
2023/09/06 02:22:48;;;;;;;6.15;5.65;;;;;;;17.23;83.72;95310.22;5136784;27;20306;-65
2023/09/06 02:25:16;;;;;;;6.13;5.50;;;;;;;17.21;83.93;95309.81;5118902;27;20658;-65
2023/09/06 02:27:43;;;;;;;5.68;5.18;;;;;;;17.18;83.80;95305.03;5118657;27;20259;-65
2023/09/06 02:30:10;;;;;;;6.00;5.35;;;;;;;17.18;84.34;95309.81;5114748;28;20246;-65
2023/09/06 02:32:38;;;;;;;7.45;5.93;;;;;;;17.16;84.17;95307.41;5115953;28;20195;-65
2023/09/06 02:35:07;;;;;;;7.13;5.70;;;;;;;17.15;84.41;95311.38;5115087;28;20227;-65
2023/09/06 02:37:34;;;;;;;7.00;5.57;;;;;;;17.18;84.42;95318.97;5114959;28;20192;-65
2023/09/06 02:40:01;;;;;;;5.95;5.38;;;;;;;17.17;84.43;95319.34;5115720;28;20664;-65
2023/09/06 02:42:27;;;;;;;5.90;5.30;;;;;;;17.13;84.57;95316.53;5114915;28;20192;-65
2023/09/06 02:44:54;;;;;;;5.15;4.75;;;;;;;17.16;84.46;95321.31;5115163;28;20196;-65
2023/09/06 02:47:28;;;;;;;5.50;5.05;;;;;;;17.13;84.39;95308.16;5115460;28;20192;-65
2023/09/06 02:49:56;;;;;;;5.90;5.40;;;;;;;17.13;84.72;95310.16;5115191;28;20187;-65
2023/09/06 02:52:29;;;;;;;6.10;5.50;;;;;;;17.12;84.07;95301.00;5114953;28;20214;-65
2023/09/06 02:54:57;;;;;;;7.53;6.53;;;;;;;17.14;83.31;95304.22;5114806;28;20227;-65
2023/09/06 02:57:25;;;;;;;8.85;7.20;;;;;;;17.16;82.67;95310.19;5115140;28;20244;-65
2023/09/06 02:59:51;;;;;;;9.48;7.95;;;;;;;17.18;82.14;95307.81;5114503;28;20202;-66
2023/09/06 03:02:19;;;;;;;10.70;8.18;;;;;;;17.20;81.72;95311.00;5114889;28;20207;-64
2023/09/06 03:04:46;;;;;;;8.02;7.22;;;;;;;17.23;80.99;95312.22;5115425;28;20206;-64
2023/09/06 03:07:15;;;;;;;7.13;6.15;;;;;;;17.27;80.28;95315.81;5115380;28;20199;-64
2023/09/06 03:09:44;;;;;;;5.93;5.05;;;;;;;17.27;80.02;95316.59;5115431;28;20192;-65
2023/09/06 03:12:12;;;;;;;5.57;5.05;;;;;;;17.27;79.25;95324.97;5118813;28;20482;-65
2023/09/06 03:14:43;;;;;;;7.38;5.32;;;;;;;17.26;79.25;95323.38;5119666;28;20264;-65
2023/09/06 03:17:10;;;;;;;5.45;4.95;;;;;;;17.26;79.13;95322.59;5120225;28;20206;-65
2023/09/06 03:19:40;;;;;;;6.78;6.07;;;;;;;17.24;79.05;95319.38;5119093;28;20586;-65
2023/09/06 03:22:09;;;;;;;8.82;6.60;;;;;;;17.26;78.92;95319.81;5119463;28;20561;-65
2023/09/06 03:24:40;;;;;;;11.23;7.10;;;;;;;17.24;78.94;95316.59;5119578;28;20195;-65
2023/09/06 03:27:07;;;;;;;9.77;7.53;;;;;;;17.23;79.20;95321.38;5118820;28;20199;-65
2023/09/06 03:29:36;;;;;;;14.32;8.60;;;;;;;17.21;78.58;95326.56;5118667;28;20288;-65
2023/09/06 03:32:07;;;;;;;10.82;7.82;;;;;;;17.19;79.41;95320.56;5118565;28;20700;-65
2023/09/06 03:34:34;;;;;;;9.68;7.50;;;;;;;17.17;80.46;95325.72;5118103;28;20734;-65
2023/09/06 03:37:04;;;;;;;7.15;6.45;;;;;;;17.13;80.56;95324.88;5118553;28;20195;-65
2023/09/06 03:39:32;;;;;;;6.75;6.05;;;;;;;17.10;81.65;95320.09;5118396;28;20200;-65
2023/09/06 03:42:01;;;;;;;7.10;6.40;;;;;;;17.09;81.07;95324.06;5118730;28;20219;-65
2023/09/06 03:44:31;;;;;;;7.30;6.38;;;;;;;17.08;81.37;95325.25;5118996;28;20179;-65
2023/09/06 03:46:58;;;;;;;7.07;5.47;;;;;;;17.08;81.86;95325.25;5118588;28;20252;-65
2023/09/06 03:49:25;;;;;;;5.90;5.40;;;;;;;17.07;82.02;95326.47;5119276;28;20180;-66
2023/09/06 03:51:52;;;;;;;6.00;5.50;;;;;;;17.09;82.28;95329.66;5119264;28;20172;-65
2023/09/06 03:54:19;;;;;;;5.70;5.18;;;;;;;17.11;82.04;95335.66;5119060;28;20207;-66
2023/09/06 03:56:46;;;;;;;5.40;5.00;;;;;;;17.15;82.10;95333.66;5117872;28;20256;-66
2023/09/06 03:59:15;;;;;;;5.03;4.63;;;;;;;17.18;82.26;95348.81;5117993;28;20207;-66
2023/09/06 04:01:43;;;;;;;6.28;5.70;;;;;;;17.17;82.12;95350.78;5118052;28;20188;-66
2023/09/06 04:04:12;;;;;;;5.78;5.28;;;;;;;17.17;82.23;95341.63;5118674;28;20260;-66
2023/09/06 04:06:43;;;;;;;5.65;5.15;;;;;;;17.17;82.10;95341.63;5117932;28;20198;-66
2023/09/06 04:09:13;;;;;;;6.82;5.40;;;;;;;17.17;82.42;95347.22;5118320;28;20206;-66
2023/09/06 04:11:40;;;;;;;5.47;4.57;;;;;;;17.16;82.15;95351.19;5118817;28;20188;-66
2023/09/06 04:14:07;;;;;;;6.25;5.20;;;;;;;17.15;82.07;95352.38;5117942;28;20203;-66
2023/09/06 04:16:37;;;;;;;5.65;5.13;;;;;;;17.16;82.61;95346.41;5117692;28;20596;-66
2023/09/06 04:19:05;;;;;;;6.32;5.45;;;;;;;17.15;81.80;95346.81;5118752;28;20184;-66
2023/09/06 04:21:32;;;;;;;6.20;5.60;;;;;;;17.16;82.16;95346.41;5118754;28;20184;-66
2023/09/06 04:23:58;;;;;;;6.20;5.65;;;;;;;17.19;82.69;95361.56;5118641;28;20183;-65
2023/09/06 04:26:25;;;;;;;5.95;5.38;;;;;;;17.21;81.95;95360.00;5117564;28;20221;-65
2023/09/06 04:28:52;;;;;;;5.80;5.20;;;;;;;17.25;82.43;95351.66;5122476;27;20321;-66
2023/09/06 04:31:19;;;;;;;6.03;5.53;;;;;;;17.24;82.34;95358.41;5138647;27;20549;-65
2023/09/06 04:33:47;;;;;;;5.90;5.50;;;;;;;17.28;82.48;95362.84;5139039;27;20188;-65
2023/09/06 04:36:13;;;;;;;6.00;5.40;;;;;;;17.30;82.22;95352.06;5120693;27;20210;-65
2023/09/06 04:38:40;;;;;;;6.40;5.85;;;;;;;17.31;81.99;95347.28;5120709;27;20191;-65
2023/09/06 04:41:07;;;;;;;5.93;5.43;;;;;;;17.33;81.75;95350.50;5139023;27;20192;-66
2023/09/06 04:43:34;;;;;;;5.72;5.13;;;;;;;17.35;81.46;95362.03;5121032;27;20206;-66
2023/09/06 04:46:00;;;;;;;6.05;5.55;;;;;;;17.35;81.75;95353.69;5120377;27;20198;-65
2023/09/06 04:48:27;;;;;;;5.80;5.22;;;;;;;17.36;81.15;95358.09;5120366;27;20267;-65
2023/09/06 04:50:56;;;;;;;6.40;5.68;;;;;;;17.37;80.99;95359.69;5138702;27;20196;-65
2023/09/06 04:53:23;;;;;;;6.57;5.97;;;;;;;17.38;80.26;95364.06;5138765;27;20206;-65
2023/09/06 04:55:52;;;;;;;7.70;5.88;;;;;;;17.37;79.57;95359.69;5120772;27;20207;-66
2023/09/06 04:58:19;;;;;;;6.50;5.70;;;;;;;17.38;79.11;95361.28;5120404;27;20230;-65
2023/09/06 05:00:47;;;;;;;6.88;5.60;;;;;;;17.41;80.09;95365.28;5120720;27;20226;-65
2023/09/06 05:03:17;;;;;;;9.05;6.68;;;;;;;17.43;79.54;95374.03;5120589;27;20198;-65
2023/09/06 05:05:45;;;;;;;10.60;7.38;;;;;;;17.46;78.77;95373.25;5138396;27;20198;-65
2023/09/06 05:08:13;;;;;;;9.52;8.10;;;;;;;17.48;78.64;95368.91;5138215;27;20601;-65
2023/09/06 05:10:40;;;;;;;8.25;6.60;;;;;;;17.51;78.86;95375.69;5138201;27;20198;-64
2023/09/06 05:13:08;;;;;;;7.43;6.72;;;;;;;17.53;79.49;95371.31;5120275;27;20192;-64
2023/09/06 05:15:35;;;;;;;7.63;6.53;;;;;;;17.56;79.19;95375.31;5120080;27;20203;-65
2023/09/06 05:18:03;;;;;;;7.47;6.78;;;;;;;17.57;79.36;95374.13;5138110;27;20574;-65
2023/09/06 05:20:33;;;;;;;7.53;6.80;;;;;;;17.58;79.89;95369.38;5119910;27;20216;-65
2023/09/06 05:23:01;;;;;;;7.13;6.53;;;;;;;17.60;80.00;95378.13;5120308;27;20573;-65
2023/09/06 05:25:29;;;;;;;7.90;6.72;;;;;;;17.60;80.05;95378.13;5137891;27;20188;-64
2023/09/06 05:27:58;;;;;;;7.50;6.60;;;;;;;17.62;80.08;95384.13;5137748;27;20191;-65
2023/09/06 05:30:25;;;;;;;8.00;6.90;;;;;;;17.62;79.59;95372.97;5137337;27;20283;-65
2023/09/06 05:32:52;;;;;;;7.60;6.70;;;;;;;17.62;79.43;95384.91;5137457;27;20247;-64
2023/09/06 05:35:18;;;;;;;7.28;6.63;;;;;;;17.65;79.61;95392.50;5137068;27;20214;-64
2023/09/06 05:37:45;;;;;;;7.93;7.13;;;;;;;17.68;79.19;95385.31;5137231;27;20625;-65
2023/09/06 05:40:13;;;;;;;7.88;7.00;;;;;;;17.71;78.90;95388.13;5137644;27;20179;-65
2023/09/06 05:42:42;;;;;;;7.60;6.90;;;;;;;17.74;78.49;95390.16;5137484;27;20179;-65
2023/09/06 05:45:11;;;;;;;8.02;6.45;;;;;;;17.77;77.90;95392.19;5137705;27;20182;-65
2023/09/06 05:47:39;;;;;;;8.48;6.80;;;;;;;17.80;77.64;95385.81;5119791;27;20195;-65
2023/09/06 05:50:08;;;;;;;6.35;5.78;;;;;;;17.84;76.99;95391.41;5137451;27;20195;-65
2023/09/06 05:52:35;;;;;;;7.00;6.15;;;;;;;17.86;76.30;95386.22;5118882;27;20644;-66
2023/09/06 05:55:02;;;;;;;6.13;5.50;;;;;;;17.89;75.42;95399.41;5119639;27;20215;-65
2023/09/06 05:57:29;;;;;;;5.90;5.35;;;;;;;17.93;75.26;95391.03;5137028;27;20422;-65
2023/09/06 05:59:57;;;;;;;5.60;5.10;;;;;;;17.95;74.68;95399.84;5118948;27;20198;-66
2023/09/06 06:02:24;;;;;;;5.60;5.07;;;;;;;17.98;74.84;95399.06;5137240;27;20252;-72
2023/09/06 06:04:52;;;;;;;5.47;4.90;;;;;;;17.99;74.96;95401.44;5119323;27;20195;-72
2023/09/06 06:07:19;;;;;;;5.75;5.15;;;;;;;18.00;74.68;95408.63;5119155;27;20202;-71
2023/09/06 06:09:46;;;;;;;6.18;5.47;;;;;;;18.03;74.54;95410.63;5136829;27;20195;-69
2023/09/06 06:12:13;;;;;;;6.05;4.90;;;;;;;18.08;73.93;95409.44;5137010;27;20195;-68
2023/09/06 06:14:41;;;;;;;6.40;4.85;;;;;;;18.09;73.43;95413.06;5136951;27;20179;-68
2023/09/06 06:17:10;;;;;;;5.43;4.93;;;;;;;18.13;73.79;95417.44;5118796;27;20242;-65
2023/09/06 06:19:37;;;;;;;5.10;4.70;;;;;;;18.15;73.45;95415.03;5119115;27;20187;-66
2023/09/06 06:22:04;;;;;;;5.55;4.97;;;;;;;18.16;72.67;95413.09;5118750;27;20563;-65
2023/09/06 06:24:31;;;;;;;5.80;4.90;;;;;;;18.16;72.84;95421.47;5136526;27;20190;-65
2023/09/06 06:26:58;;;;;;;5.53;5.03;;;;;;;18.18;72.60;95425.44;5119490;27;20195;-66
2023/09/06 06:29:25;;;;;;;6.18;5.60;;;;;;;18.22;72.46;95425.44;5115645;28;20277;-65
2023/09/06 06:31:52;;;;;;;6.75;4.90;;;;;;;18.28;72.18;95432.25;5115978;28;20200;-65
2023/09/06 06:35:25;;;;;;;7.10;5.10;;;;;;;18.31;72.25;95423.09;5115575;28;20199;-65
2023/09/06 06:37:55;;;;;;;5.40;4.95;;;;;;;18.38;72.02;95430.69;5054500;28;20181;-65
2023/09/06 06:40:22;;;;;;;6.50;5.75;;;;;;;18.42;71.60;95437.09;5054323;28;20208;-66
2023/09/06 06:42:50;;;;;;;6.75;5.32;;;;;;;18.45;71.42;95437.09;5054406;28;20219;-65
2023/09/06 06:45:16;;;;;;;5.97;5.38;;;;;;;18.49;71.49;95429.53;5036931;28;20240;-66
2023/09/06 06:47:43;;;;;;;5.50;4.90;;;;;;;18.56;71.36;95437.13;5037276;28;20256;-66
2023/09/06 06:50:10;;;;;;;5.45;4.90;;;;;;;18.59;70.92;95444.72;5037452;28;20201;-65
2023/09/06 06:52:43;;;;;;;5.63;5.13;;;;;;;18.64;70.23;95437.94;5036783;28;20213;-66
2023/09/06 06:55:12;;;;;;;5.70;4.40;;;;;;;18.69;69.67;95435.53;5037050;28;20206;-66
2023/09/06 06:57:38;;;;;;;5.22;4.72;;;;;;;18.75;69.11;95433.19;5053558;28;20201;-66
2023/09/06 07:00:11;;;;;;;6.15;4.70;;;;;;;18.80;68.42;95434.78;5053453;28;20224;-65
2023/09/06 07:02:38;;;;;;;5.72;5.10;;;;;;;18.83;68.86;95437.59;5053329;28;20222;-66
2023/09/06 07:05:05;;;;;;;5.35;4.85;;;;;;;18.90;68.71;95436.81;5053534;28;20610;-65
2023/09/06 07:07:32;;;;;;;5.00;4.57;;;;;;;18.93;67.26;95441.59;5036795;28;20201;-65
2023/09/06 07:09:58;;;;;;;5.43;4.80;;;;;;;18.97;66.63;95442.41;5115480;28;20186;-66
2023/09/06 07:12:27;;;;;;;5.53;4.93;;;;;;;19.00;66.78;95441.59;5115312;28;20194;-65
2023/09/06 07:14:54;;;;;;;5.20;4.80;;;;;;;19.03;66.56;95440.00;5115296;28;20195;-65
2023/09/06 07:17:21;;;;;;;5.32;4.68;;;;;;;19.05;66.50;95438.41;5114746;28;20211;-65
2023/09/06 07:19:48;;;;;;;6.70;4.95;;;;;;;19.08;66.78;95442.41;5115694;28;20184;-66
2023/09/06 07:22:15;;;;;;;5.40;4.72;;;;;;;19.09;67.00;95441.19;5114486;28;20191;-65
2023/09/06 07:24:41;;;;;;;4.65;4.25;;;;;;;19.12;66.78;95435.59;5114263;28;20552;-65
2023/09/06 07:27:08;;;;;;;5.75;5.03;;;;;;;19.15;66.65;95437.59;5115602;28;20184;-65
2023/09/06 07:29:36;;;;;;;5.68;5.00;;;;;;;19.16;66.89;95441.19;5125346;27;20233;-65
2023/09/06 07:32:03;;;;;;;5.18;4.65;;;;;;;19.19;67.15;95432.03;5135997;28;20183;-65
2023/09/06 07:34:31;;;;;;;6.05;5.40;;;;;;;19.21;67.02;95438.81;5135675;28;20219;-65
2023/09/06 07:36:57;;;;;;;5.13;4.72;;;;;;;19.26;66.40;95434.03;5117747;28;20211;-65
2023/09/06 07:39:24;;;;;;;5.30;4.80;;;;;;;19.29;65.90;95427.63;5135592;28;20187;-65
2023/09/06 07:41:52;;;;;;;7.82;4.75;;;;;;;19.33;66.05;95429.22;5117968;28;20533;-65
2023/09/06 07:44:19;;;;;;;6.43;5.20;;;;;;;19.43;65.42;95424.81;5117533;28;20191;-65
2023/09/06 07:46:48;;;;;;;4.68;4.28;;;;;;;19.55;65.63;95420.78;5135840;28;20270;-65
2023/09/06 07:49:15;;;;;;;5.97;4.70;;;;;;;19.65;64.40;95425.59;5135808;28;20183;-65
2023/09/06 07:51:42;;;;;;;6.00;5.03;;;;;;;19.69;64.25;95415.19;5135878;28;20206;-65
2023/09/06 07:54:10;;;;;;;6.10;4.97;;;;;;;19.69;63.98;95413.19;5117903;28;20206;-65
2023/09/06 07:56:38;;;;;;;4.97;4.57;;;;;;;19.71;64.80;95424.78;5135872;27;20222;-65
2023/09/06 07:59:05;;;;;;;5.38;4.88;;;;;;;19.74;63.74;95409.19;5121964;27;20569;-65
2023/09/06 08:01:33;;;;;;;6.05;4.95;;;;;;;19.78;63.51;95417.56;5121679;27;20202;-65
2023/09/06 08:04:01;;;;;;;5.57;5.05;;;;;;;19.83;63.21;95420.75;5121850;27;20208;-65
2023/09/06 08:06:28;;;;;;;5.63;4.90;;;;;;;19.90;63.16;95408.75;5121754;27;20198;-65
2023/09/06 08:08:54;;;;;;;4.95;4.47;;;;;;;19.96;62.82;95419.09;5122125;27;20646;-65
2023/09/06 08:11:21;;;;;;;5.43;4.95;;;;;;;20.05;62.39;95417.88;5121774;27;20202;-65
2023/09/06 08:13:48;;;;;;;5.93;5.43;;;;;;;20.17;61.25;95425.81;5139007;27;20526;-65
2023/09/06 08:16:15;;;;;;;5.82;5.30;;;;;;;20.23;61.38;95421.41;5121187;27;20215;-65
2023/09/06 08:18:41;;;;;;;6.18;5.63;;;;;;;20.34;60.20;95421.38;5120837;27;20191;-65
2023/09/06 08:21:09;;;;;;;6.00;5.40;;;;;;;20.41;60.02;95432.53;5139255;27;20187;-65
2023/09/06 08:23:36;;;;;;;6.10;5.43;;;;;;;20.48;60.09;95424.09;5121138;27;20191;-65
2023/09/06 08:26:03;;;;;;;5.85;5.35;;;;;;;20.51;59.98;95434.47;5120936;27;20199;-65
2023/09/06 08:28:30;;;;;;;6.97;5.07;;;;;;;20.56;59.05;95431.28;5120608;27;20230;-65
2023/09/06 08:30:59;;;;;;;5.47;4.90;;;;;;;20.66;60.07;95432.41;5121193;27;20244;-65
2023/09/06 08:33:26;;;;;;;5.88;5.10;;;;;;;20.80;58.05;95440.72;5139053;27;20518;-65
2023/09/06 08:35:53;;;;;;;6.70;5.55;;;;;;;20.97;58.95;95435.41;5121284;27;20199;-65
2023/09/06 08:38:21;;;;;;;6.18;5.63;;;;;;;21.14;59.23;95432.47;5138874;27;20545;-65
2023/09/06 08:41:07;;;;;;;6.13;5.35;;;;;;;21.35;58.25;95425.09;5120454;27;20590;-66
2023/09/06 08:43:36;;;;;;;6.90;5.65;;;;;;;21.49;56.90;95427.00;5120981;27;20198;-66
2023/09/06 08:46:09;;;;;;;5.95;5.45;;;;;;;21.45;56.49;95420.63;5120340;27;20202;-66
2023/09/06 08:48:37;;;;;;;5.60;5.03;;;;;;;21.38;56.33;95419.47;5138614;27;20197;-65
2023/09/06 08:51:05;;;;;;;5.68;5.18;;;;;;;21.37;55.95;95419.88;5120954;27;20219;-65
2023/09/06 08:53:34;;;;;;;6.07;5.20;;;;;;;21.37;57.01;95417.88;5120585;27;20267;-66
2023/09/06 08:56:01;;;;;;;6.30;5.30;;;;;;;21.30;56.10;95417.13;5120665;27;20198;-65
2023/09/06 08:58:28;;;;;;;6.93;5.60;;;;;;;21.23;56.97;95423.59;5138434;27;20183;-66
2023/09/06 09:00:55;;;;;;;6.63;6.13;;;;;;;21.19;57.20;95419.22;5120364;27;20213;-65
2023/09/06 09:03:22;;;;;;;6.63;5.55;;;;;;;21.16;58.04;95424.44;5120919;27;20194;-65
2023/09/06 09:05:49;;;;;;;8.10;5.28;;;;;;;21.12;57.46;95418.06;5138242;27;20186;-65
2023/09/06 09:08:15;;;;;;;5.80;5.30;;;;;;;21.05;57.49;95426.53;5119649;28;20195;-65
2023/09/06 09:10:43;;;;;;;6.93;5.40;;;;;;;21.03;57.59;95425.38;5137781;27;20179;-65
2023/09/06 09:13:12;;;;;;;5.88;5.10;;;;;;;21.01;57.64;95420.16;5138284;27;20195;-65
2023/09/06 09:15:38;;;;;;;5.97;5.40;;;;;;;20.97;57.26;95424.19;5120141;27;20239;-65
2023/09/06 09:18:12;;;;;;;6.10;5.60;;;;;;;20.96;57.12;95417.00;5120225;27;20203;-65
2023/09/06 09:20:40;;;;;;;6.55;5.95;;;;;;;20.96;57.51;95423.41;5137925;27;20191;-66
2023/09/06 09:23:11;;;;;;;6.65;5.40;;;;;;;20.96;57.66;95423.41;5137836;27;20554;-66
2023/09/06 09:25:48;;;;;;;5.80;5.30;;;;;;;20.99;57.59;95425.41;5138033;27;20210;-65
2023/09/06 09:28:15;;;;;;;7.22;5.78;;;;;;;21.00;56.79;95414.97;5119549;27;20203;-65
2023/09/06 09:30:42;;;;;;;5.22;4.82;;;;;;;21.01;57.32;95424.97;5138199;27;20242;-66
2023/09/06 09:33:09;;;;;;;6.00;5.38;;;;;;;21.01;57.58;95425.75;5120193;27;20198;-65
2023/09/06 09:35:37;;;;;;;6.50;5.90;;;;;;;21.04;56.39;95424.94;5137601;27;20215;-66
2023/09/06 09:38:06;;;;;;;5.97;5.47;;;;;;;21.05;56.44;95420.91;5119455;27;20211;-66
2023/09/06 09:40:33;;;;;;;7.00;6.30;;;;;;;21.06;56.66;95421.72;5119590;27;20195;-66
2023/09/06 09:43:02;;;;;;;6.13;5.60;;;;;;;21.10;57.26;95419.72;5120209;27;20252;-66
2023/09/06 09:45:29;;;;;;;7.72;5.50;;;;;;;21.12;57.60;95412.44;5119920;27;20195;-65
2023/09/06 09:47:56;;;;;;;6.47;5.93;;;;;;;21.14;56.68;95417.66;5119309;27;20199;-65
2023/09/06 09:50:24;;;;;;;6.75;6.15;;;;;;;21.15;55.74;95419.25;5137091;27;20195;-65
2023/09/06 09:52:52;;;;;;;6.57;5.88;;;;;;;21.15;56.18;95425.66;5137132;27;20203;-66
2023/09/06 09:55:22;;;;;;;6.55;5.82;;;;;;;21.16;56.09;95423.63;5119600;27;20194;-65
2023/09/06 09:57:49;;;;;;;6.88;6.28;;;;;;;21.18;55.36;95418.44;5119491;27;20214;-66
2023/09/06 10:00:18;;;;;;;6.75;6.15;;;;;;;21.21;56.34;95425.22;5118954;27;20191;-66
2023/09/06 10:02:47;;;;;;;6.10;5.53;;;;;;;21.21;56.08;95428.81;5119246;27;20202;-66
2023/09/06 10:05:16;;;;;;;6.32;5.72;;;;;;;21.21;55.42;95422.41;5137296;27;20175;-66
2023/09/06 10:07:43;;;;;;;7.10;6.47;;;;;;;21.22;56.22;95424.00;5136809;27;20522;-66
2023/09/06 10:10:11;;;;;;;6.38;5.78;;;;;;;21.20;55.76;95426.41;5119357;27;20198;-66
2023/09/06 10:12:41;;;;;;;6.75;6.25;;;;;;;21.19;56.03;95417.22;5119036;27;20202;-66
2023/09/06 10:15:08;;;;;;;6.55;5.95;;;;;;;21.19;56.71;95419.22;5137010;27;20591;-66
2023/09/06 10:17:37;;;;;;;6.60;6.00;;;;;;;21.22;56.77;95407.19;5118738;27;20218;-66
2023/09/06 10:20:11;;;;;;;6.68;6.07;;;;;;;21.23;57.15;95401.16;5118708;27;20199;-66
2023/09/06 10:22:40;;;;;;;7.63;5.80;;;;;;;21.25;56.62;95395.13;5118845;27;20198;-66
2023/09/06 10:25:10;;;;;;;6.75;6.15;;;;;;;21.30;56.06;95405.91;5119188;27;20199;-65
2023/09/06 10:27:45;;;;;;;6.78;6.22;;;;;;;21.31;55.82;95401.88;5118567;27;20195;-65
2023/09/06 10:30:17;;;;;;;6.88;6.28;;;;;;;21.32;55.98;95400.69;5115179;28;20249;-66
2023/09/06 10:32:46;;;;;;;7.20;6.50;;;;;;;21.33;56.19;95405.06;5115263;28;20241;-66
2023/09/06 10:35:21;;;;;;;6.57;6.03;;;;;;;21.33;56.06;95397.47;5114892;28;20210;-66
2023/09/06 10:38:05;;;;;;;6.68;6.07;;;;;;;21.35;56.83;95392.25;5115886;28;20199;-66
2023/09/06 10:41:07;;;;;;;7.07;6.38;;;;;;;21.35;55.67;95395.06;5116020;28;20180;-66
2023/09/06 10:43:54;;;;;;;6.72;5.97;;;;;;;21.36;55.60;95396.66;5114781;28;20192;-66
2023/09/06 10:46:26;;;;;;;7.00;6.40;;;;;;;21.36;55.24;95398.66;5115047;28;20225;-66
2023/09/06 10:49:16;;;;;;;7.82;6.70;;;;;;;21.37;55.62;95389.81;5115241;28;20204;-66
2023/09/06 10:51:59;;;;;;;8.32;6.80;;;;;;;21.41;54.73;95386.97;5115024;28;20635;-66
2023/09/06 10:54:34;;;;;;;7.10;6.50;;;;;;;21.42;54.91;95382.97;5114817;28;20203;-66
2023/09/06 10:57:03;;;;;;;6.90;6.25;;;;;;;21.45;53.99;95390.53;5115470;28;20661;-66
2023/09/06 10:59:31;;;;;;;7.18;6.45;;;;;;;21.45;54.56;95381.34;5115330;28;20184;-65
2023/09/06 11:02:26;;;;;;;6.82;6.15;;;;;;;21.49;53.27;95387.72;5114901;28;20214;-66
2023/09/06 11:05:07;;;;;;;6.78;6.18;;;;;;;21.51;52.72;95379.69;5115274;28;20219;-65
2023/09/06 11:07:41;;;;;;;7.38;6.20;;;;;;;21.52;52.69;95382.06;5115732;28;20279;-66
2023/09/06 11:10:09;;;;;;;9.23;6.82;;;;;;;21.59;53.38;95384.00;5114797;28;20192;-66
2023/09/06 11:12:36;;;;;;;6.75;6.07;;;;;;;21.65;52.86;95375.94;5114509;28;20203;-66
2023/09/06 11:15:03;;;;;;;6.32;5.72;;;;;;;21.68;53.71;95383.50;5115323;28;20599;-65
2023/09/06 11:17:30;;;;;;;6.68;6.00;;;;;;;21.69;53.63;95371.88;5114862;28;20238;-65
2023/09/06 11:19:56;;;;;;;6.55;5.95;;;;;;;21.71;54.86;95372.22;5097464;28;20215;-65
2023/09/06 11:22:25;;;;;;;6.63;6.13;;;;;;;21.74;54.46;95373.41;5115023;28;20203;-66
2023/09/06 11:24:51;;;;;;;7.47;6.78;;;;;;;21.75;55.12;95375.00;5114900;28;20195;-66
2023/09/06 11:27:19;;;;;;;6.45;5.90;;;;;;;21.76;55.13;95366.19;5115509;28;20183;-66
2023/09/06 11:29:46;;;;;;;6.78;6.18;;;;;;;21.76;55.31;95363.38;5114552;28;20242;-66
2023/09/06 11:32:15;;;;;;;6.97;6.38;;;;;;;21.79;55.50;95359.72;5116617;28;20180;-65
2023/09/06 11:34:43;;;;;;;6.07;5.47;;;;;;;21.81;55.49;95350.88;5118097;28;20196;-65
2023/09/06 11:37:12;;;;;;;9.52;5.90;;;;;;;21.88;55.79;95357.19;5118183;28;20659;-65
2023/09/06 11:39:41;;;;;;;6.90;6.30;;;;;;;21.98;54.66;95355.47;5118838;28;20202;-65